createdAt,value
2023-01-09T00:03:36.288Z,2.31
2023-01-09T00:07:39.346Z,2.32
2023-01-09T00:11:42.286Z,2.36
2023-01-09T00:15:45.220Z,2.31
2023-01-09T00:19:49.536Z,2.24
2023-01-09T00:23:54.609Z,2.17
2023-01-09T00:27:57.550Z,2.14
2023-01-09T00:32:00.527Z,2.17
2023-01-09T00:36:05.523Z,2.12
2023-01-09T00:40:09.435Z,2.14
2023-01-09T00:44:15.963Z,2.17
2023-01-09T00:48:26.546Z,2.18
2023-01-09T00:52:32.311Z,2.15
2023-01-09T00:56:37.165Z,2.21
2023-01-09T01:00:40.415Z,2.26
2023-01-09T01:05:00.852Z,2.22
2023-01-09T01:09:05.287Z,2.22
2023-01-09T01:13:08.318Z,2.15
2023-01-09T01:17:11.509Z,2.12
2023-01-09T01:21:15.984Z,2.09
2023-01-09T01:25:20.467Z,2.10
2023-01-09T01:29:23.409Z,2.10
2023-01-09T01:33:26.512Z,2.10
2023-01-09T01:37:29.616Z,2.03
2023-01-09T01:41:34.279Z,2.00
2023-01-09T01:45:40.354Z,2.03
2023-01-09T01:49:43.596Z,2.06
2023-01-09T01:53:49.281Z,2.06
2023-01-09T01:57:59.654Z,2.05
2023-01-09T02:02:04.190Z,2.10
2023-01-09T02:06:08.359Z,2.06
2023-01-09T02:10:11.815Z,2.08
2023-01-09T02:14:17.507Z,2.13
2023-01-09T02:18:41.551Z,2.11
2023-01-09T02:23:01.641Z,2.13
2023-01-09T02:27:30.543Z,2.13
2023-01-09T02:31:43.356Z,2.17
2023-01-09T02:36:13.712Z,2.18
2023-01-09T02:40:26.075Z,2.19
2023-01-09T02:44:31.802Z,2.18
2023-01-09T02:48:36.285Z,2.14
2023-01-09T02:52:54.976Z,2.14
2023-01-09T02:57:17.938Z,2.17
2023-01-09T03:01:29.740Z,2.26
2023-01-09T03:05:41.458Z,2.33
2023-01-09T03:09:48.258Z,2.38
2023-01-09T03:13:54.518Z,2.42
2023-01-09T03:17:58.829Z,2.46
2023-01-09T03:22:04.005Z,2.52
2023-01-09T03:26:11.754Z,2.58
2023-01-09T03:30:15.059Z,2.63
2023-01-09T03:34:18.194Z,2.67
2023-01-09T03:38:22.654Z,2.67
2023-01-09T03:42:25.621Z,2.63
2023-01-09T03:46:28.542Z,2.57
2023-01-09T03:50:31.790Z,2.49
2023-01-09T03:54:36.211Z,2.47
2023-01-09T03:58:39.127Z,2.48
2023-01-09T04:02:43.145Z,2.46
2023-01-09T04:06:46.119Z,2.50
2023-01-09T04:10:51.589Z,2.55
2023-01-09T04:14:54.495Z,2.62
2023-01-09T04:18:57.710Z,2.62
2023-01-09T04:23:00.750Z,2.64
2023-01-09T04:27:05.223Z,2.64
2023-01-09T04:31:08.141Z,2.64
2023-01-09T04:35:11.555Z,2.68
2023-01-09T04:39:14.631Z,2.75
2023-01-09T04:43:18.983Z,2.80
2023-01-09T04:47:23.744Z,2.85
2023-01-09T04:51:26.650Z,2.86
2023-01-09T04:55:29.734Z,2.89
2023-01-09T04:59:34.017Z,2.84
2023-01-09T05:03:36.953Z,2.76
2023-01-09T05:07:40.327Z,2.78
2023-01-09T05:11:43.253Z,2.80
2023-01-09T05:15:47.609Z,2.83
2023-01-09T05:19:50.725Z,2.85
2023-01-09T05:23:53.970Z,2.86
2023-01-09T05:27:56.996Z,2.87
2023-01-09T05:32:01.283Z,2.86
2023-01-09T05:36:04.367Z,2.83
2023-01-09T05:40:08.370Z,2.83
2023-01-09T05:44:11.461Z,2.82
2023-01-09T05:48:15.781Z,2.85
2023-01-09T05:52:18.704Z,2.85
2023-01-09T05:56:21.707Z,2.87
2023-01-09T06:00:24.852Z,2.89
2023-01-09T06:04:30.119Z,2.92
2023-01-09T06:08:33.333Z,3.01
2023-01-09T06:12:36.298Z,3.24
2023-01-09T06:16:39.508Z,3.56
2023-01-09T06:20:45.389Z,3.95
2023-01-09T06:24:48.385Z,4.31
2023-01-09T06:28:51.421Z,4.56
2023-01-09T06:32:54.477Z,4.75
2023-01-09T06:37:01.846Z,4.95
2023-01-09T06:41:04.947Z,5.12
2023-01-09T06:45:09.013Z,5.26
2023-01-09T06:49:12.192Z,5.38
2023-01-09T06:53:16.437Z,5.52
2023-01-09T06:57:19.364Z,5.60
2023-01-09T07:01:22.436Z,5.68
2023-01-09T07:05:25.477Z,5.80
2023-01-09T07:09:29.790Z,5.89
2023-01-09T07:13:32.804Z,5.99
2023-01-09T07:17:35.781Z,6.06
2023-01-09T07:21:38.679Z,6.15
2023-01-09T07:25:43.948Z,6.11
2023-01-09T07:29:47.032Z,6.03
2023-01-09T07:33:49.972Z,5.92
2023-01-09T07:37:53.029Z,5.80
2023-01-09T07:41:57.489Z,5.84
2023-01-09T07:46:01.606Z,5.94
2023-01-09T07:50:05.063Z,6.05
2023-01-09T07:54:07.997Z,6.13
2023-01-09T07:58:12.351Z,6.23
2023-01-09T08:02:15.553Z,6.26
2023-01-09T08:06:18.536Z,6.11
2023-01-09T08:10:21.947Z,5.95
2023-01-09T08:14:26.292Z,5.79
2023-01-09T08:18:29.218Z,5.62
2023-01-09T08:22:32.163Z,5.49
2023-01-09T08:26:35.065Z,5.37
2023-01-09T08:30:39.780Z,5.25
2023-01-09T08:34:42.693Z,5.11
2023-01-09T08:38:45.699Z,5.10
2023-01-09T08:43:06.253Z,5.10
2023-01-09T08:47:10.819Z,5.01
2023-01-09T08:51:13.723Z,5.02
2023-01-09T08:55:16.771Z,5.04
2023-01-09T08:59:19.745Z,5.06
2023-01-09T09:03:24.041Z,5.04
2023-01-09T09:07:27.504Z,5.04
2023-01-09T09:11:31.515Z,5.00
2023-01-09T09:15:34.777Z,4.97
2023-01-09T09:19:42.754Z,4.91
2023-01-09T09:23:45.740Z,4.91
2023-01-09T09:27:48.812Z,4.94
2023-01-09T09:31:51.708Z,4.95
2023-01-09T09:35:56.201Z,5.01
2023-01-09T09:40:01.441Z,5.06
2023-01-09T09:44:43.668Z,5.03
2023-01-09T09:48:56.959Z,4.95
2023-01-09T09:53:07.930Z,4.97
2023-01-09T09:57:17.125Z,4.97
2023-01-09T10:01:25.826Z,5.01
2023-01-09T10:05:31.946Z,5.07
2023-01-09T10:09:48.348Z,5.18
2023-01-09T10:14:13.163Z,5.27
2023-01-09T10:18:35.439Z,5.35
2023-01-09T10:22:49.720Z,5.41
2023-01-09T10:26:55.099Z,5.45
2023-01-09T10:31:02.618Z,5.46
2023-01-09T10:35:39.258Z,5.47
2023-01-09T10:39:55.683Z,5.51
2023-01-09T10:44:05.504Z,5.53
2023-01-09T10:48:20.847Z,5.57
2023-01-09T10:52:31.075Z,5.61
2023-01-09T10:56:40.845Z,5.64
2023-01-09T11:00:46.459Z,5.68
2023-01-09T11:04:49.547Z,5.73
2023-01-09T11:08:57.049Z,5.77
2023-01-09T11:13:14.945Z,5.81
2023-01-09T11:17:24.411Z,5.83
2023-01-09T11:21:33.183Z,5.86
2023-01-09T11:25:36.240Z,5.91
2023-01-09T11:29:39.763Z,5.97
2023-01-09T11:33:51.782Z,5.99
2023-01-09T11:38:05.465Z,6.06
2023-01-09T11:42:18.638Z,6.13
2023-01-09T11:46:33.464Z,6.16
2023-01-09T11:50:38.180Z,6.22
2023-01-09T11:54:45.548Z,6.27
2023-01-09T11:58:48.684Z,6.29
2023-01-09T12:03:05.321Z,6.32
2023-01-09T12:07:24.481Z,6.34
2023-01-09T12:11:34.307Z,6.34
2023-01-09T12:15:48.419Z,6.34
2023-01-09T12:20:09.143Z,6.39
2023-01-09T12:24:37.685Z,6.48
2023-01-09T12:28:55.053Z,6.52
2023-01-09T12:33:15.343Z,6.52
2023-01-09T12:37:38.613Z,6.54
2023-01-09T12:42:11.141Z,6.55
2023-01-09T12:46:19.106Z,6.57
2023-01-09T12:50:36.576Z,6.58
2023-01-09T12:54:47.170Z,6.59
2023-01-09T12:58:55.697Z,6.59
2023-01-09T13:03:12.001Z,6.62
2023-01-09T13:07:22.333Z,6.63
2023-01-09T13:11:29.832Z,6.64
2023-01-09T13:15:40.736Z,6.67
2023-01-09T13:19:46.204Z,6.69
2023-01-09T13:23:53.273Z,6.67
2023-01-09T13:28:00.588Z,6.69
2023-01-09T13:32:25.726Z,6.69
2023-01-09T13:36:33.116Z,6.67
2023-01-09T13:40:36.258Z,6.69
2023-01-09T13:44:39.674Z,6.72
2023-01-09T13:48:44.077Z,6.70
2023-01-09T13:52:48.979Z,6.72
2023-01-09T13:57:26.227Z,6.73
2023-01-09T14:01:47.552Z,6.77
2023-01-09T14:06:18.614Z,6.81
2023-01-09T14:10:25.780Z,6.79
2023-01-09T14:14:33.185Z,6.78
2023-01-09T14:18:41.666Z,6.77
2023-01-09T14:22:56.386Z,6.78
2023-01-09T14:27:27.106Z,6.77
2023-01-09T14:31:31.971Z,6.74
2023-01-09T14:35:47.504Z,6.75
2023-01-09T14:39:52.612Z,6.75
2023-01-09T14:44:01.991Z,6.74
2023-01-09T14:48:09.865Z,6.71
2023-01-09T14:52:22.447Z,6.71
2023-01-09T14:56:29.806Z,6.66
2023-01-09T15:00:32.870Z,6.65
2023-01-09T15:04:41.459Z,6.64
2023-01-09T15:08:47.074Z,6.65
2023-01-09T15:12:53.793Z,6.64
2023-01-09T15:16:57.009Z,6.60
2023-01-09T15:21:03.990Z,6.59
2023-01-09T15:25:37.746Z,6.60
2023-01-09T15:29:43.150Z,6.57
2023-01-09T15:33:48.264Z,6.58
2023-01-09T15:37:54.752Z,6.54
2023-01-09T15:42:16.873Z,6.54
2023-01-09T15:46:21.329Z,6.51
2023-01-09T15:50:30.396Z,6.49
2023-01-09T15:54:35.286Z,6.49
2023-01-09T15:58:39.523Z,6.50
2023-01-09T16:03:03.512Z,6.46
2023-01-09T16:07:16.160Z,6.47
2023-01-09T16:11:24.876Z,6.48
2023-01-09T16:15:30.223Z,6.49
2023-01-09T16:19:48.875Z,6.51
2023-01-09T16:23:57.514Z,6.52
2023-01-09T16:32:24.512Z,6.59
2023-01-09T16:36:29.681Z,6.63
2023-01-09T16:40:36.078Z,6.62
2023-01-09T16:44:39.132Z,6.61
2023-01-09T16:48:42.393Z,6.61
2023-01-09T16:52:47.589Z,6.58
2023-01-09T16:56:54.288Z,6.57
2023-01-09T17:00:57.706Z,6.57
2023-01-09T17:05:00.862Z,6.55
2023-01-09T17:09:05.601Z,6.53
2023-01-09T17:13:08.876Z,6.49
2023-01-09T17:17:12.958Z,6.44
2023-01-09T17:21:18.824Z,6.45
2023-01-09T17:25:40.900Z,6.46
2023-01-09T17:29:44.625Z,6.46
2023-01-09T17:33:47.720Z,6.46
2023-01-09T17:37:50.730Z,6.46
2023-01-09T17:41:57.613Z,6.48
2023-01-09T17:46:01.154Z,6.45
2023-01-09T17:50:04.602Z,6.42
2023-01-09T17:54:08.053Z,6.43
2023-01-09T17:58:25.887Z,6.44
2023-01-09T18:02:28.980Z,6.43
2023-01-09T18:06:32.192Z,6.42
2023-01-09T18:10:35.280Z,6.40
2023-01-09T18:14:40.722Z,6.37
2023-01-09T18:18:45.049Z,6.36
2023-01-09T18:22:48.170Z,6.33
2023-01-09T18:26:51.399Z,6.33
2023-01-09T18:30:55.796Z,6.33
2023-01-09T18:34:58.936Z,6.34
2023-01-09T18:39:04.114Z,6.35
2023-01-09T18:43:07.972Z,6.34
2023-01-09T18:47:12.556Z,6.34
2023-01-09T18:51:15.594Z,6.29
2023-01-09T18:55:18.686Z,6.29
2023-01-09T18:59:21.770Z,6.29
2023-01-09T19:03:26.317Z,6.32
2023-01-09T19:07:29.354Z,6.34
2023-01-09T19:11:32.636Z,6.31
2023-01-09T19:15:35.755Z,6.33
2023-01-09T19:19:40.304Z,6.30
2023-01-09T19:23:44.891Z,6.29
2023-01-09T19:27:49.438Z,6.29
2023-01-09T19:31:53.383Z,6.30
2023-01-09T19:35:58.061Z,6.28
2023-01-09T19:40:01.164Z,6.25
2023-01-09T19:44:04.263Z,6.23
2023-01-09T19:48:07.443Z,6.22
2023-01-09T19:52:11.998Z,6.22
2023-01-09T19:56:16.693Z,6.19
2023-01-09T20:00:20.371Z,6.17
2023-01-09T20:04:23.437Z,6.17
2023-01-09T20:08:27.856Z,6.15
2023-01-09T20:12:30.876Z,6.14
2023-01-09T20:16:33.984Z,6.12
2023-01-09T20:20:38.291Z,6.06
2023-01-09T20:24:43.010Z,6.04
2023-01-09T20:28:47.090Z,6.02
2023-01-09T20:32:50.922Z,5.99
2023-01-09T20:36:55.396Z,5.99
2023-01-09T20:41:07.294Z,5.96
2023-01-09T20:45:11.980Z,5.91
2023-01-09T20:49:16.960Z,5.89
2023-01-09T20:53:20.018Z,5.89
2023-01-09T20:57:24.454Z,5.87
2023-01-09T21:01:28.256Z,5.89
2023-01-09T21:05:31.280Z,5.84
2023-01-09T21:09:34.299Z,5.83
2023-01-09T21:13:39.500Z,5.83
2023-01-09T21:17:42.658Z,5.78
2023-01-09T21:21:45.676Z,5.73
2023-01-09T21:25:48.965Z,5.74
2023-01-09T21:29:54.526Z,5.71
2023-01-09T21:33:57.766Z,5.72
2023-01-09T21:38:00.987Z,5.68
2023-01-09T21:42:21.698Z,5.66
2023-01-09T21:46:43.521Z,5.63
2023-01-09T21:50:46.579Z,5.63
2023-01-09T21:54:49.642Z,5.61
2023-01-09T21:58:52.705Z,5.61
2023-01-09T22:02:57.863Z,5.59
2023-01-09T22:07:01.304Z,5.59
2023-01-09T22:11:04.727Z,5.60
2023-01-09T22:15:08.232Z,5.56
2023-01-09T22:19:13.113Z,5.54
2023-01-09T22:23:16.157Z,5.56
2023-01-09T22:27:19.185Z,5.54
2023-01-09T22:31:25.200Z,5.52
2023-01-09T22:35:29.614Z,5.49
2023-01-09T22:39:32.639Z,5.47
2023-01-09T22:43:35.843Z,5.47
2023-01-09T22:47:38.851Z,5.47
2023-01-09T22:51:43.831Z,5.52
2023-01-09T22:55:46.860Z,5.51
2023-01-09T22:59:49.881Z,5.52
2023-01-09T23:03:53.206Z,5.52
2023-01-09T23:07:57.647Z,5.52
2023-01-09T23:12:03.405Z,5.49
2023-01-09T23:16:07.304Z,5.49
2023-01-09T23:20:11.661Z,5.48
2023-01-09T23:24:17.820Z,5.48
2023-01-09T23:28:21.776Z,5.50
2023-01-09T23:32:24.879Z,5.49
2023-01-09T23:36:27.923Z,5.54
2023-01-09T23:40:32.356Z,5.51
2023-01-09T23:44:36.410Z,5.52
2023-01-09T23:48:39.779Z,5.52
2023-01-09T23:52:43.035Z,5.52
2023-01-09T23:56:47.492Z,5.51
